createdAt,value
2022-11-20T00:00:57.504Z,100.00
2022-11-20T00:03:25.474Z,100.00
2022-11-20T00:05:52.135Z,100.00
2022-11-20T00:08:24.316Z,100.00
2022-11-20T00:10:53.749Z,100.00
2022-11-20T00:13:20.597Z,100.00
2022-11-20T00:15:47.269Z,100.00
2022-11-20T00:18:34.788Z,100.00
2022-11-20T00:21:16.125Z,100.00
2022-11-20T00:23:44.670Z,100.00
2022-11-20T00:26:27.199Z,100.00
2022-11-20T00:28:57.102Z,100.00
2022-11-20T00:46:31.929Z,100.00
2022-11-20T00:49:00.226Z,100.00
2022-11-20T00:51:28.459Z,100.00
2022-11-20T00:54:27.602Z,100.00
2022-11-20T00:56:55.017Z,100.00
2022-11-20T01:02:19.834Z,100.00
2022-11-20T01:07:39.660Z,100.00
2022-11-20T01:13:25.725Z,100.00
2022-11-20T01:38:43.991Z,100.00
2022-11-20T01:58:05.278Z,100.00
2022-11-20T02:03:26.359Z,100.00
2022-11-20T02:14:39.982Z,100.00
2022-11-20T02:52:47.244Z,100.00
2022-11-20T02:55:14.020Z,100.00
2022-11-20T03:03:20.248Z,100.00
2022-11-20T03:08:29.827Z,100.00
2022-11-20T03:17:30.802Z,100.00
2022-11-20T03:22:57.147Z,100.00
2022-11-20T03:38:53.656Z,100.00
2022-11-20T03:44:23.038Z,100.00
2022-11-20T03:46:53.829Z,100.00
2022-11-20T05:37:58.779Z,100.00
2022-11-20T06:54:37.659Z,100.00
2022-11-20T06:57:04.222Z,99.92
2022-11-20T08:36:04.469Z,95.54
2022-11-20T08:38:32.009Z,95.73
2022-11-20T08:41:25.278Z,94.69
2022-11-20T08:43:54.902Z,95.70
2022-11-20T08:46:22.200Z,95.44
2022-11-20T09:13:15.212Z,97.27
2022-11-20T09:18:19.591Z,95.39
2022-11-20T09:20:51.388Z,94.39
2022-11-20T09:23:21.353Z,93.38
2022-11-20T09:26:16.839Z,93.34
2022-11-20T09:34:09.020Z,92.54
2022-11-20T09:36:36.090Z,92.42
2022-11-20T09:39:04.845Z,92.82
2022-11-20T09:42:02.155Z,91.62
2022-11-20T09:44:55.363Z,91.10
2022-11-20T09:50:57.068Z,91.32
2022-11-20T09:54:16.433Z,91.86
2022-11-20T09:57:02.811Z,91.79
2022-11-20T09:59:43.170Z,89.81
2022-11-20T10:02:26.060Z,89.57
2022-11-20T10:05:44.212Z,90.38
2022-11-20T10:08:25.052Z,91.73
2022-11-20T10:11:30.849Z,91.68
2022-11-20T10:15:16.278Z,93.26
2022-11-20T10:18:41.156Z,92.89
2022-11-20T10:26:03.347Z,93.35
2022-11-20T10:35:47.823Z,92.75
2022-11-20T10:42:35.919Z,92.02
2022-11-20T11:01:43.955Z,90.80
2022-11-20T11:04:28.088Z,90.82
2022-11-20T11:07:07.024Z,91.48
2022-11-20T11:09:39.671Z,93.44
2022-11-20T11:12:10.879Z,92.96
2022-11-20T11:14:51.273Z,93.93
2022-11-20T11:17:29.957Z,92.99
2022-11-20T11:20:06.510Z,91.72
2022-11-20T11:22:35.771Z,92.35
2022-11-20T11:25:02.463Z,91.66
2022-11-20T11:27:29.123Z,92.44
2022-11-20T11:30:13.555Z,92.89
2022-11-20T11:32:40.032Z,94.80
2022-11-20T11:35:19.660Z,96.51
2022-11-20T11:37:48.346Z,95.93
2022-11-20T12:27:43.099Z,94.88
2022-11-20T12:39:06.899Z,94.88
2022-11-20T12:42:40.915Z,92.59
2022-11-20T12:48:24.772Z,93.52
2022-11-20T12:51:36.146Z,93.42
2022-11-20T12:54:37.752Z,93.87
2022-11-20T13:12:04.938Z,93.74
2022-11-20T13:18:06.549Z,94.67
2022-11-20T13:21:07.201Z,95.17
2022-11-20T13:23:33.977Z,95.18
2022-11-20T13:26:26.361Z,96.06
2022-11-20T13:44:08.899Z,95.09
2022-11-20T13:46:45.751Z,95.49
2022-11-20T13:49:51.243Z,97.05
2022-11-20T13:52:40.211Z,96.72
2022-11-20T13:55:39.055Z,95.87
2022-11-20T13:58:53.801Z,96.16
2022-11-20T14:01:26.175Z,96.47
2022-11-20T14:04:09.622Z,96.14
2022-11-20T14:06:43.705Z,95.99
2022-11-20T14:09:32.050Z,95.86
2022-11-20T14:23:20.666Z,97.01
2022-11-20T14:25:51.664Z,96.53
2022-11-20T14:28:29.492Z,97.34
2022-11-20T14:31:00.305Z,97.74
2022-11-20T14:33:44.357Z,98.81
2022-11-20T14:36:23.799Z,98.21
2022-11-20T14:38:51.958Z,98.09
2022-11-20T14:41:22.020Z,97.69
2022-11-20T14:43:57.671Z,98.45
2022-11-20T14:46:25.546Z,98.76
2022-11-20T14:49:01.453Z,99.48
2022-11-20T14:51:42.465Z,99.76
2022-11-20T14:54:36.064Z,99.39
2022-11-20T15:00:38.836Z,99.46
2022-11-20T15:15:36.479Z,100.00
2022-11-20T15:18:04.692Z,99.85
2022-11-20T15:20:37.188Z,99.16
2022-11-20T15:23:43.544Z,99.02
2022-11-20T15:26:48.954Z,99.69
2022-11-20T15:29:47.976Z,99.17
2022-11-20T15:32:16.962Z,99.99
2022-11-20T15:34:44.012Z,99.80
2022-11-20T15:37:21.681Z,100.00
2022-11-20T15:40:03.748Z,98.89
2022-11-20T15:42:30.526Z,98.90
2022-11-20T15:45:40.711Z,97.58
2022-11-20T15:48:14.999Z,97.63
2022-11-20T15:50:55.666Z,98.26
2022-11-20T15:53:34.152Z,98.64
2022-11-20T15:56:33.598Z,97.68
2022-11-20T15:59:06.074Z,96.96
2022-11-20T16:01:32.812Z,97.19
2022-11-20T16:04:00.897Z,96.69
2022-11-20T16:06:30.797Z,95.31
2022-11-20T16:08:59.997Z,96.16
2022-11-20T16:11:28.603Z,96.32
2022-11-20T16:14:18.046Z,96.79
2022-11-20T16:16:48.272Z,97.31
2022-11-20T16:19:17.754Z,98.33
2022-11-20T16:22:18.635Z,97.02
2022-11-20T16:24:47.671Z,97.88
2022-11-20T16:27:14.743Z,98.33
2022-11-20T16:29:42.867Z,98.95
2022-11-20T16:32:11.186Z,98.20
2022-11-20T16:34:37.985Z,98.11
2022-11-20T16:37:07.802Z,97.54
2022-11-20T16:39:40.012Z,98.06
2022-11-20T16:42:06.703Z,98.88
2022-11-20T16:44:35.597Z,99.32
2022-11-20T16:47:14.259Z,98.25
2022-11-20T16:49:40.955Z,98.36
2022-11-20T16:52:09.989Z,98.03
2022-11-20T16:54:36.559Z,96.85
2022-11-20T16:57:03.431Z,96.95
2022-11-20T16:59:32.032Z,98.22
2022-11-20T17:01:59.942Z,97.23
2022-11-20T17:04:26.648Z,97.32
2022-11-20T17:06:53.333Z,97.64
2022-11-20T17:09:19.931Z,97.47
2022-11-20T17:11:56.877Z,96.86
2022-11-20T17:14:28.378Z,97.05
2022-11-20T17:16:55.106Z,97.11
2022-11-20T17:19:23.200Z,96.30
2022-11-20T17:21:50.067Z,94.96
2022-11-20T17:24:19.957Z,95.78
2022-11-20T17:26:49.095Z,95.53
2022-11-20T17:29:18.245Z,94.34
2022-11-20T17:38:18.647Z,96.07
2022-11-20T17:41:15.029Z,95.81
2022-11-20T17:56:18.055Z,95.98
2022-11-20T17:58:45.090Z,95.84
2022-11-20T18:01:20.260Z,95.17
2022-11-20T18:03:47.444Z,94.22
2022-11-20T18:06:22.616Z,94.98
2022-11-20T18:09:07.198Z,93.96
2022-11-20T18:11:38.540Z,94.17
2022-11-20T18:14:26.202Z,95.63
2022-11-20T18:16:54.136Z,95.68
2022-11-20T18:19:23.695Z,96.12
2022-11-20T18:21:52.227Z,95.12
2022-11-20T18:24:19.469Z,95.45
2022-11-20T18:26:48.390Z,95.25
2022-11-20T18:29:18.555Z,94.81
2022-11-20T18:31:45.334Z,95.28
2022-11-20T18:34:14.264Z,96.08
2022-11-20T18:36:45.315Z,95.71
2022-11-20T18:39:16.215Z,94.76
2022-11-20T18:42:01.615Z,94.86
2022-11-20T18:44:53.725Z,95.69
2022-11-20T18:47:32.125Z,94.97
2022-11-20T18:50:01.259Z,95.18
2022-11-20T18:52:30.350Z,94.46
2022-11-20T18:54:57.180Z,93.72
2022-11-20T18:57:26.577Z,94.42
2022-11-20T19:00:03.443Z,92.95
2022-11-20T19:02:43.699Z,94.44
2022-11-20T19:05:37.796Z,95.08
2022-11-20T19:16:23.709Z,95.76
2022-11-20T19:18:51.003Z,96.30
2022-11-20T19:21:19.801Z,96.20
2022-11-20T19:24:07.033Z,95.89
2022-11-20T19:26:35.638Z,96.84
2022-11-20T19:29:02.787Z,96.79
2022-11-20T19:31:29.379Z,96.73
2022-11-20T19:33:58.168Z,96.50
2022-11-20T19:36:31.034Z,95.98
2022-11-20T19:39:00.639Z,95.34
2022-11-20T19:41:51.129Z,95.67
2022-11-20T19:45:22.529Z,96.40
2022-11-20T19:55:24.562Z,95.84
2022-11-20T19:58:40.284Z,95.75
2022-11-20T20:01:34.290Z,96.11
2022-11-20T20:07:58.178Z,95.55
2022-11-20T20:10:37.161Z,95.83
2022-11-20T21:51:45.629Z,100.00
2022-11-20T21:54:12.338Z,100.00
2022-11-20T21:56:39.261Z,100.00
2022-11-20T21:59:06.047Z,99.88
2022-11-20T22:01:32.626Z,100.00
2022-11-20T22:04:01.383Z,98.04
2022-11-20T22:06:34.978Z,100.00
2022-11-20T22:20:17.166Z,98.56
2022-11-20T22:22:43.972Z,99.17
2022-11-20T22:25:10.575Z,99.37
2022-11-20T22:27:37.110Z,100.00
2022-11-20T22:30:03.661Z,99.83
2022-11-20T22:32:30.138Z,98.91
2022-11-20T22:42:18.938Z,99.00
2022-11-20T22:44:48.572Z,98.92
2022-11-20T22:47:15.308Z,97.75
2022-11-20T22:49:42.054Z,97.63
2022-11-20T22:52:08.868Z,99.98
2022-11-20T22:54:35.393Z,100.00
2022-11-20T22:57:01.892Z,100.00
2022-11-20T22:59:28.469Z,100.00
2022-11-20T23:01:54.896Z,99.64
2022-11-20T23:04:21.641Z,100.00
2022-11-20T23:06:54.526Z,100.00
2022-11-20T23:09:31.587Z,100.00
2022-11-20T23:19:28.697Z,100.00
2022-11-20T23:25:45.626Z,100.00
2022-11-20T23:32:06.332Z,100.00
2022-11-20T23:34:33.182Z,100.00
2022-11-20T23:37:01.256Z,100.00
2022-11-20T23:39:27.811Z,100.00
2022-11-20T23:41:54.323Z,100.00
2022-11-20T23:44:22.042Z,100.00
2022-11-20T23:46:48.552Z,100.00
2022-11-20T23:49:15.026Z,100.00
2022-11-20T23:51:41.679Z,100.00
2022-11-20T23:54:08.815Z,100.00
2022-11-20T23:56:35.417Z,100.00
2022-11-20T23:59:01.974Z,100.00
